Time;durP1;ratioP1;P1;durP2;ratioP2;P2;SDS_P1;SDS_P2;PMS_P1;PMS_P2;Temp;Humidity;BMP_temperature;BMP_pressure;BME280_temperature;BME280_humidity;BME280_pressure;Samples;Min_cycle;Max_cycle;Signal;HPM_P1;HPM_P2
2022/10/29 00:00:37;;;;;;;0.10;0.10;;;14.40;99.90;;;;;;5062875;28;21063;-78
2022/10/29 00:03:02;;;;;;;0.10;0.10;;;14.40;99.90;;;;;;5062608;28;20199;-78
2022/10/29 00:05:28;;;;;;;0.10;0.10;;;14.30;99.90;;;;;;5063375;28;20222;-79
2022/10/29 00:07:54;;;;;;;0.10;0.10;;;14.40;99.90;;;;;;5062923;28;20191;-79
2022/10/29 00:10:19;;;;;;;0.00;0.00;;;14.50;99.90;;;;;;5064033;28;20179;-79
2022/10/29 00:12:45;;;;;;;0.10;0.10;;;14.40;99.90;;;;;;5064979;28;20229;-79
2022/10/29 00:15:11;;;;;;;0.10;0.10;;;14.40;99.90;;;;;;5062634;28;20708;-79
2022/10/29 00:17:36;;;;;;;0.10;0.10;;;14.30;99.90;;;;;;5063883;28;20261;-79
2022/10/29 00:20:02;;;;;;;0.07;0.07;;;14.30;99.90;;;;;;5063225;28;20184;-79
2022/10/29 00:22:28;;;;;;;0.10;0.10;;;14.30;99.90;;;;;;5078295;28;20207;-79
2022/10/29 00:24:53;;;;;;;0.10;0.10;;;14.30;99.90;;;;;;5063241;28;21093;-79
2022/10/29 00:27:19;;;;;;;0.10;0.10;;;14.30;99.90;;;;;;5064297;28;21040;-79
2022/10/29 00:29:44;;;;;;;0.10;0.10;;;14.40;99.90;;;;;;5060419;28;20259;-79
2022/10/29 00:32:10;;;;;;;0.10;0.10;;;14.40;99.90;;;;;;5070918;28;20208;-80
2022/10/29 00:34:36;;;;;;;0.10;0.10;;;14.30;99.90;;;;;;5064443;28;20176;-79
2022/10/29 00:37:03;;;;;;;0.10;0.10;;;14.30;99.90;;;;;;5064015;28;20185;-79
2022/10/29 00:39:28;;;;;;;0.10;0.10;;;14.10;99.90;;;;;;5062885;28;20219;-79
2022/10/29 00:41:55;;;;;;;0.10;0.10;;;14.00;99.90;;;;;;5064119;28;20910;-79
2022/10/29 00:44:24;;;;;;;0.10;0.10;;;13.90;99.90;;;;;;5061442;28;20188;-79
2022/10/29 00:47:01;;;;;;;0.10;0.10;;;13.90;99.90;;;;;;5079186;28;20231;-79
2022/10/29 00:49:27;;;;;;;0.10;0.10;;;14.00;99.90;;;;;;5063600;28;20616;-79
2022/10/29 00:51:53;;;;;;;0.10;0.10;;;13.90;99.90;;;;;;5062745;28;20278;-79
2022/10/29 00:54:19;;;;;;;0.10;0.10;;;13.90;99.90;;;;;;5063309;28;20302;-79
2022/10/29 00:56:59;;;;;;;0.00;0.00;;;13.90;99.90;;;;;;5060998;28;20278;-79
2022/10/29 00:59:24;;;;;;;0.10;0.10;;;13.90;99.90;;;;;;5062079;28;20685;-79
2022/10/29 01:01:50;;;;;;;0.10;0.10;;;13.80;99.90;;;;;;5062409;28;20190;-79
2022/10/29 01:04:17;;;;;;;0.00;0.00;;;13.80;99.90;;;;;;5061872;28;20183;-79
2022/10/29 01:06:43;;;;;;;0.10;0.10;;;13.70;99.90;;;;;;5079729;28;20203;-79
2022/10/29 01:09:09;;;;;;;0.00;0.00;;;13.70;99.90;;;;;;5062371;28;20175;-79
2022/10/29 01:11:48;;;;;;;0.10;0.10;;;13.70;99.90;;;;;;5061200;28;20203;-79
2022/10/29 01:14:40;;;;;;;0.10;0.10;;;13.80;99.90;;;;;;5071605;28;20175;-79
2022/10/29 01:17:24;;;;;;;0.10;0.10;;;13.80;99.90;;;;;;5018539;28;20648;-79
2022/10/29 01:20:14;;;;;;;0.10;0.10;;;13.90;99.90;;;;;;5060907;28;20178;-79
2022/10/29 01:22:52;;;;;;;0.10;0.10;;;13.90;99.90;;;;;;5070011;28;20204;-79
2022/10/29 01:25:42;;;;;;;0.10;0.10;;;13.90;99.90;;;;;;5069707;28;21219;-79
2022/10/29 01:28:29;;;;;;;0.10;0.10;;;13.90;99.90;;;;;;5070773;28;20183;-79
2022/10/29 01:31:32;;;;;;;0.10;0.10;;;14.00;99.90;;;;;;5072772;28;20661;-79
2022/10/29 01:34:21;;;;;;;0.10;0.10;;;14.00;99.90;;;;;;5069414;28;20676;-79
2022/10/29 01:37:00;;;;;;;0.10;0.10;;;14.10;99.90;;;;;;5061884;28;20254;-79
2022/10/29 01:39:30;;;;;;;0.10;0.10;;;14.10;99.90;;;;;;5062425;28;20253;-79
2022/10/29 01:42:09;;;;;;;0.10;0.10;;;14.10;99.90;;;;;;5071117;28;20180;-79
2022/10/29 01:44:55;;;;;;;0.10;0.10;;;14.10;99.90;;;;;;5063186;28;20681;-79
2022/10/29 01:47:23;;;;;;;0.10;0.10;;;14.10;99.90;;;;;;5060639;28;20210;-79
2022/10/29 01:49:56;;;;;;;0.10;0.10;;;14.00;99.90;;;;;;5059648;28;20698;-79
2022/10/29 01:52:24;;;;;;;0.10;0.10;;;14.10;99.90;;;;;;5061180;28;20556;-79
2022/10/29 01:54:50;;;;;;;0.10;0.10;;;14.00;99.90;;;;;;5061341;28;20266;-79
2022/10/29 01:57:33;;;;;;;0.10;0.10;;;14.00;99.90;;;;;;5061244;28;20322;-79
2022/10/29 02:00:07;;;;;;;0.10;0.10;;;13.70;99.90;;;;;;5059622;28;20183;-79
2022/10/29 02:03:06;;;;;;;0.00;0.00;;;13.60;99.90;;;;;;5070475;28;20219;-79
2022/10/29 02:05:58;;;;;;;0.10;0.10;;;13.60;99.90;;;;;;5070392;28;20214;-79
2022/10/29 02:08:46;;;;;;;0.00;0.00;;;13.50;99.90;;;;;;5063201;28;20282;-79
2022/10/29 02:11:25;;;;;;;0.10;0.10;;;13.40;99.90;;;;;;5062954;28;20195;-79
2022/10/29 02:14:03;;;;;;;0.10;0.10;;;13.30;99.90;;;;;;5061627;28;20218;-79
2022/10/29 02:16:30;;;;;;;0.10;0.10;;;13.30;99.90;;;;;;5061623;28;20186;-79
2022/10/29 02:18:56;;;;;;;0.10;0.10;;;13.40;99.90;;;;;;5061461;28;20674;-79
2022/10/29 02:21:22;;;;;;;0.00;0.00;;;13.40;99.90;;;;;;5060058;28;20213;-79
2022/10/29 02:23:48;;;;;;;0.10;0.10;;;13.40;99.90;;;;;;5060170;28;20778;-79
2022/10/29 02:26:14;;;;;;;0.10;0.10;;;13.40;99.90;;;;;;5060609;28;20207;-79
2022/10/29 02:28:40;;;;;;;0.10;0.10;;;13.50;99.90;;;;;;5059740;28;20187;-79
2022/10/29 02:31:06;;;;;;;0.10;0.10;;;13.50;99.90;;;;;;5060778;28;20906;-79
2022/10/29 02:33:32;;;;;;;0.00;0.00;;;13.50;99.90;;;;;;5060801;28;20599;-79
2022/10/29 02:35:57;;;;;;;0.10;0.10;;;13.50;99.90;;;;;;5059347;28;20274;-79
2022/10/29 02:38:23;;;;;;;0.10;0.10;;;13.50;99.90;;;;;;5058995;28;20764;-79
2022/10/29 02:40:48;;;;;;;0.10;0.10;;;13.60;99.90;;;;;;5058995;28;20750;-79
2022/10/29 02:43:14;;;;;;;0.10;0.10;;;13.70;99.90;;;;;;5060736;28;21134;-80
2022/10/29 02:45:39;;;;;;;0.10;0.10;;;13.80;99.90;;;;;;5060491;28;20813;-79
2022/10/29 02:48:05;;;;;;;0.00;0.00;;;13.80;99.90;;;;;;5060496;28;21082;-79
2022/10/29 02:50:31;;;;;;;0.10;0.10;;;13.80;99.90;;;;;;5062460;28;20668;-79
2022/10/29 02:52:56;;;;;;;0.10;0.10;;;13.70;99.90;;;;;;5062642;28;20736;-79
2022/10/29 02:55:22;;;;;;;0.10;0.10;;;13.50;99.90;;;;;;5065605;28;20560;-79
2022/10/29 02:57:47;;;;;;;0.00;0.00;;;13.40;99.90;;;;;;5072472;28;20195;-79
2022/10/29 03:00:13;;;;;;;0.10;0.10;;;13.20;99.90;;;;;;5065706;28;20232;-79
2022/10/29 03:02:39;;;;;;;0.10;0.10;;;13.10;99.90;;;;;;5063629;28;20217;-79
2022/10/29 03:05:05;;;;;;;0.10;0.10;;;13.10;99.90;;;;;;5063785;28;20194;-79
2022/10/29 03:07:35;;;;;;;0.10;0.10;;;13.10;99.90;;;;;;5064048;28;20345;-79
2022/10/29 03:10:05;;;;;;;0.10;0.10;;;13.20;99.90;;;;;;5074108;28;20178;-79
2022/10/29 03:12:31;;;;;;;0.10;0.10;;;13.10;99.90;;;;;;5072790;28;20256;-79
2022/10/29 03:14:57;;;;;;;0.10;0.10;;;13.00;99.90;;;;;;5063844;28;20530;-79
2022/10/29 03:17:22;;;;;;;0.00;0.00;;;13.00;99.90;;;;;;5065414;28;20725;-79
2022/10/29 03:19:48;;;;;;;0.10;0.10;;;13.00;99.90;;;;;;5066065;28;20173;-79
2022/10/29 03:22:14;;;;;;;0.10;0.10;;;13.10;99.90;;;;;;5064018;28;20194;-79
2022/10/29 03:24:39;;;;;;;0.10;0.10;;;13.10;99.90;;;;;;5063331;28;21231;-79
2022/10/29 03:27:05;;;;;;;0.10;0.10;;;13.10;99.90;;;;;;5066260;28;20703;-79
2022/10/29 03:29:30;;;;;;;0.10;0.10;;;13.20;99.90;;;;;;5066326;28;20222;-79
2022/10/29 03:31:56;;;;;;;0.10;0.10;;;13.30;99.90;;;;;;5064253;28;20183;-79
2022/10/29 03:34:22;;;;;;;0.10;0.10;;;13.30;99.90;;;;;;5064641;28;20294;-79
2022/10/29 03:36:47;;;;;;;0.10;0.10;;;13.40;99.90;;;;;;5066242;28;20205;-79
2022/10/29 03:39:13;;;;;;;0.10;0.10;;;13.40;99.90;;;;;;5065498;28;20187;-79
2022/10/29 03:41:38;;;;;;;0.10;0.10;;;13.50;99.90;;;;;;5064871;28;20683;-79
2022/10/29 03:44:04;;;;;;;0.10;0.10;;;13.50;99.90;;;;;;5064037;28;20214;-79
2022/10/29 03:46:30;;;;;;;0.10;0.10;;;13.40;99.90;;;;;;5066100;28;20218;-79
2022/10/29 03:48:55;;;;;;;0.10;0.10;;;13.40;99.90;;;;;;5064991;28;20812;-79
2022/10/29 03:51:21;;;;;;;0.10;0.10;;;13.50;99.90;;;;;;5060972;28;20202;-79
2022/10/29 03:53:46;;;;;;;0.10;0.10;;;13.40;99.90;;;;;;5064533;28;20222;-79
2022/10/29 03:56:12;;;;;;;0.10;0.10;;;13.50;99.90;;;;;;5077142;28;20178;-79
2022/10/29 03:58:37;;;;;;;0.10;0.10;;;13.40;99.90;;;;;;5064319;28;20252;-79
2022/10/29 04:01:06;;;;;;;0.10;0.10;;;13.40;99.90;;;;;;5063981;28;20183;-79
2022/10/29 04:03:33;;;;;;;0.10;0.10;;;13.40;99.90;;;;;;5059872;28;20211;-79
2022/10/29 04:06:00;;;;;;;0.00;0.00;;;13.50;99.90;;;;;;5065112;28;21207;-79
2022/10/29 04:08:26;;;;;;;0.10;0.10;;;13.60;99.90;;;;;;5062532;28;20674;-79
2022/10/29 04:10:52;;;;;;;0.10;0.10;;;13.60;99.90;;;;;;5062670;28;20210;-79
2022/10/29 04:13:18;;;;;;;0.10;0.10;;;13.40;99.90;;;;;;5063881;28;20202;-79
2022/10/29 04:15:44;;;;;;;0.10;0.10;;;13.40;99.90;;;;;;5062598;28;20600;-79
2022/10/29 04:18:10;;;;;;;0.10;0.10;;;13.30;99.90;;;;;;5064340;28;21213;-79
2022/10/29 04:20:38;;;;;;;0.10;0.10;;;13.30;99.90;;;;;;5065415;28;20711;-79
2022/10/29 04:23:04;;;;;;;0.00;0.00;;;13.20;99.90;;;;;;5060363;28;20630;-79
2022/10/29 04:25:29;;;;;;;0.00;0.00;;;13.10;99.90;;;;;;5062439;28;20285;-79
2022/10/29 04:27:55;;;;;;;0.10;0.10;;;13.00;99.90;;;;;;5063741;28;20183;-79
2022/10/29 04:30:22;;;;;;;0.10;0.10;;;13.00;99.90;;;;;;5063704;28;20572;-80
2022/10/29 04:32:48;;;;;;;0.00;0.00;;;12.90;99.90;;;;;;5062458;28;20220;-80
2022/10/29 04:35:14;;;;;;;0.10;0.10;;;13.00;99.90;;;;;;5062367;28;20185;-80
2022/10/29 04:37:39;;;;;;;0.00;0.00;;;13.00;99.90;;;;;;5050332;28;20565;-80
2022/10/29 04:40:05;;;;;;;0.10;0.10;;;13.20;99.90;;;;;;5062575;28;20231;-79
2022/10/29 04:42:38;;;;;;;0.10;0.10;;;13.40;99.90;;;;;;5061142;28;20223;-80
2022/10/29 04:45:05;;;;;;;1.60;1.50;;;13.50;99.90;;;;;;5061896;28;20196;-80
2022/10/29 04:47:31;;;;;;;0.10;0.10;;;13.70;99.90;;;;;;5061341;28;20186;-80
2022/10/29 04:49:57;;;;;;;0.10;0.10;;;13.80;99.90;;;;;;5061650;28;20184;-80
2022/10/29 04:52:22;;;;;;;0.10;0.10;;;13.80;99.90;;;;;;5061966;28;20208;-80
2022/10/29 04:54:48;;;;;;;0.07;0.07;;;13.90;99.90;;;;;;5060187;28;20260;-80
2022/10/29 04:57:13;;;;;;;0.03;0.03;;;14.00;99.90;;;;;;5063890;28;20601;-80
2022/10/29 04:59:39;;;;;;;0.10;0.10;;;14.00;99.90;;;;;;5059134;28;20191;-80
2022/10/29 05:02:04;;;;;;;0.10;0.10;;;13.80;99.90;;;;;;5057965;28;20208;-79
2022/10/29 05:04:30;;;;;;;0.10;0.10;;;13.80;99.90;;;;;;5055393;28;20193;-80
2022/10/29 05:06:56;;;;;;;0.10;0.10;;;13.60;99.90;;;;;;5059173;28;20211;-79
2022/10/29 05:09:21;;;;;;;0.10;0.10;;;13.60;99.90;;;;;;5059889;28;20201;-79
2022/10/29 05:11:47;;;;;;;0.10;0.10;;;13.50;99.90;;;;;;5057900;28;20214;-80
2022/10/29 05:14:12;;;;;;;0.10;0.10;;;13.60;99.90;;;;;;5067811;28;20184;-79
2022/10/29 05:16:38;;;;;;;0.10;0.10;;;13.60;99.90;;;;;;5061315;28;20186;-80
2022/10/29 05:19:04;;;;;;;0.10;0.10;;;13.70;99.90;;;;;;5061961;28;20188;-79
2022/10/29 05:21:30;;;;;;;0.10;0.10;;;13.70;99.90;;;;;;5062885;28;20190;-80
2022/10/29 05:23:56;;;;;;;0.10;0.10;;;13.70;99.90;;;;;;5060858;28;20260;-80
2022/10/29 05:26:21;;;;;;;0.10;0.10;;;13.70;99.90;;;;;;5063512;28;20220;-79
2022/10/29 05:28:50;;;;;;;0.10;0.10;;;13.70;99.90;;;;;;5062872;28;20270;-79
2022/10/29 05:31:17;;;;;;;0.10;0.10;;;13.70;99.90;;;;;;5062219;28;20270;-79
2022/10/29 05:33:43;;;;;;;0.10;0.10;;;13.80;99.90;;;;;;5062248;28;20207;-79
2022/10/29 05:36:09;;;;;;;0.10;0.10;;;13.90;99.90;;;;;;5061901;28;20199;-79
2022/10/29 05:38:34;;;;;;;0.10;0.10;;;13.90;99.90;;;;;;5060622;28;20189;-80
2022/10/29 05:41:00;;;;;;;0.10;0.10;;;13.90;99.90;;;;;;5060064;28;20194;-80
2022/10/29 05:43:26;;;;;;;0.10;0.10;;;13.50;99.90;;;;;;5058363;28;20225;-80
2022/10/29 05:45:51;;;;;;;0.10;0.10;;;13.40;99.90;;;;;;5059469;28;20206;-80
2022/10/29 05:48:17;;;;;;;0.10;0.10;;;13.50;99.90;;;;;;5063281;28;20202;-81
2022/10/29 05:50:43;;;;;;;0.10;0.10;;;13.60;99.90;;;;;;5061864;28;20280;-80
2022/10/29 05:53:12;;;;;;;0.10;0.10;;;13.70;99.90;;;;;;5060335;28;20558;-81
2022/10/29 05:55:38;;;;;;;0.10;0.10;;;13.70;99.90;;;;;;5059854;28;20202;-80
2022/10/29 05:58:08;;;;;;;0.10;0.10;;;13.70;99.90;;;;;;5060055;28;20222;-81
2022/10/29 06:00:36;;;;;;;0.10;0.10;;;13.70;99.90;;;;;;5059243;28;20229;-81
2022/10/29 06:03:02;;;;;;;0.10;0.10;;;13.80;99.90;;;;;;5055931;28;20214;-80
2022/10/29 06:05:28;;;;;;;0.10;0.10;;;13.90;99.90;;;;;;5060075;28;20676;-80
2022/10/29 06:07:58;;;;;;;0.10;0.10;;;14.00;99.90;;;;;;5071844;28;20175;-80
2022/10/29 06:10:25;;;;;;;0.10;0.10;;;14.10;99.90;;;;;;5076575;28;20187;-80
2022/10/29 06:12:51;;;;;;;0.10;0.10;;;14.10;99.90;;;;;;5058219;28;20206;-80
2022/10/29 06:15:17;;;;;;;0.10;0.10;;;14.20;99.90;;;;;;5060967;28;20228;-80
2022/10/29 06:17:44;;;;;;;0.10;0.10;;;14.30;99.90;;;;;;5060718;28;20244;-79
2022/10/29 06:20:11;;;;;;;0.10;0.10;;;14.30;99.90;;;;;;5056672;28;20265;-80
2022/10/29 06:22:36;;;;;;;0.10;0.10;;;14.40;99.90;;;;;;5060870;28;20213;-80
2022/10/29 06:25:03;;;;;;;0.10;0.10;;;14.40;99.90;;;;;;5061424;28;20195;-80
2022/10/29 06:27:29;;;;;;;0.10;0.10;;;14.30;99.90;;;;;;5063452;28;20197;-80
2022/10/29 06:29:54;;;;;;;0.10;0.10;;;14.10;99.90;;;;;;5065950;28;20188;-80
2022/10/29 06:32:20;;;;;;;0.10;0.10;;;14.00;99.90;;;;;;5065926;28;20552;-80
2022/10/29 06:34:45;;;;;;;0.10;0.10;;;13.90;99.90;;;;;;5065144;28;20626;-80
2022/10/29 06:37:11;;;;;;;0.07;0.07;;;13.90;99.90;;;;;;5065468;28;20186;-80
2022/10/29 06:39:37;;;;;;;0.10;0.10;;;13.90;99.90;;;;;;5073825;28;20285;-80
2022/10/29 06:42:02;;;;;;;0.10;0.10;;;14.00;99.90;;;;;;5065655;28;20222;-80
2022/10/29 06:44:28;;;;;;;0.10;0.10;;;14.00;99.90;;;;;;5063405;28;20199;-80
2022/10/29 06:46:54;;;;;;;0.10;0.10;;;14.10;99.90;;;;;;5061647;28;20722;-80
2022/10/29 06:49:20;;;;;;;0.10;0.10;;;14.20;99.90;;;;;;5065298;28;20178;-79
2022/10/29 06:51:46;;;;;;;0.10;0.10;;;14.30;99.90;;;;;;5072521;28;20184;-80
2022/10/29 06:54:12;;;;;;;0.10;0.10;;;14.40;99.90;;;;;;5062785;28;20208;-80
2022/10/29 06:56:37;;;;;;;0.10;0.10;;;14.40;99.90;;;;;;5056903;28;20277;-80
2022/10/29 06:59:03;;;;;;;0.10;0.10;;;14.50;99.90;;;;;;5055664;28;20242;-80
2022/10/29 07:01:31;;;;;;;0.10;0.10;;;14.50;99.90;;;;;;5065558;28;20186;-80
2022/10/29 07:04:00;;;;;;;0.10;0.10;;;14.50;99.90;;;;;;5062101;28;20214;-81
2022/10/29 07:06:26;;;;;;;0.10;0.10;;;14.40;99.90;;;;;;5060514;28;20222;-80
2022/10/29 07:08:52;;;;;;;0.10;0.10;;;14.20;99.90;;;;;;5059968;28;20189;-80
2022/10/29 07:11:17;;;;;;;0.10;0.10;;;14.10;99.90;;;;;;5064156;28;20182;-80
2022/10/29 07:13:43;;;;;;;0.07;0.07;;;14.00;99.90;;;;;;5059402;28;20213;-80
2022/10/29 07:16:08;;;;;;;0.10;0.10;;;14.00;99.90;;;;;;5065398;28;20254;-80
2022/10/29 07:18:34;;;;;;;0.10;0.10;;;14.10;99.90;;;;;;5062632;28;20197;-80
2022/10/29 07:21:03;;;;;;;0.10;0.10;;;14.20;99.90;;;;;;5063646;28;20182;-80
2022/10/29 07:23:29;;;;;;;0.00;0.00;;;14.30;99.90;;;;;;5056798;28;20216;-80
2022/10/29 07:25:55;;;;;;;0.10;0.10;;;14.50;99.90;;;;;;5061207;28;20735;-81
2022/10/29 07:28:24;;;;;;;0.00;0.00;;;14.50;99.90;;;;;;5056774;28;20204;-79
2022/10/29 07:30:50;;;;;;;0.10;0.10;;;14.50;99.90;;;;;;5062676;28;20227;-79
2022/10/29 07:33:17;;;;;;;0.00;0.00;;;14.50;99.90;;;;;;5054995;28;20299;-80
2022/10/29 07:35:43;;;;;;;0.10;0.10;;;14.70;99.90;;;;;;5063582;28;20604;-79
2022/10/29 07:38:10;;;;;;;0.00;0.00;;;14.90;99.90;;;;;;5063596;28;20187;-79
2022/10/29 07:40:38;;;;;;;0.00;0.00;;;15.10;99.90;;;;;;5058010;28;20314;-79
2022/10/29 07:43:04;;;;;;;0.10;0.10;;;15.10;99.90;;;;;;5058784;28;20216;-80
2022/10/29 07:45:29;;;;;;;0.03;0.03;;;15.20;99.90;;;;;;5060168;28;20238;-80
2022/10/29 07:47:59;;;;;;;0.10;0.10;;;15.40;99.90;;;;;;5061013;28;20874;-80
2022/10/29 07:50:25;;;;;;;0.10;0.10;;;15.50;99.90;;;;;;5066089;28;20981;-79
2022/10/29 07:52:51;;;;;;;0.10;0.10;;;15.70;99.90;;;;;;5063589;28;20233;-80
2022/10/29 07:55:16;;;;;;;0.10;0.10;;;15.80;99.90;;;;;;5063170;28;20185;-80
2022/10/29 07:57:42;;;;;;;0.10;0.10;;;15.90;99.90;;;;;;5065039;28;20295;-80
2022/10/29 08:00:09;;;;;;;0.00;0.00;;;16.00;99.90;;;;;;5063325;28;20188;-80
2022/10/29 08:02:34;;;;;;;0.10;0.10;;;15.90;99.90;;;;;;5063631;28;20220;-79
2022/10/29 08:05:00;;;;;;;0.10;0.10;;;15.90;99.90;;;;;;5064072;28;20176;-80
2022/10/29 08:07:26;;;;;;;0.10;0.10;;;15.90;99.90;;;;;;5064011;28;20195;-80
2022/10/29 08:09:51;;;;;;;0.00;0.00;;;16.10;99.90;;;;;;5063772;28;20542;-80
2022/10/29 08:12:17;;;;;;;0.10;0.10;;;16.20;99.90;;;;;;5064646;28;20930;-79
2022/10/29 08:14:43;;;;;;;0.10;0.10;;;16.10;99.90;;;;;;5071165;28;20235;-80
2022/10/29 08:17:08;;;;;;;0.10;0.10;;;16.00;99.90;;;;;;5062011;28;20258;-80
2022/10/29 08:19:34;;;;;;;0.10;0.10;;;15.70;99.90;;;;;;5064728;28;20248;-80
2022/10/29 08:21:59;;;;;;;0.10;0.10;;;15.50;99.90;;;;;;5063079;28;20315;-80
2022/10/29 08:24:25;;;;;;;0.10;0.10;;;15.50;99.90;;;;;;5063050;28;20197;-80
2022/10/29 08:26:50;;;;;;;0.10;0.10;;;15.40;99.90;;;;;;5064649;28;20217;-80
2022/10/29 08:29:16;;;;;;;0.10;0.10;;;15.40;99.90;;;;;;5064094;28;20241;-79
2022/10/29 08:31:42;;;;;;;0.10;0.10;;;15.40;99.90;;;;;;5062960;28;20200;-80
2022/10/29 08:34:07;;;;;;;0.10;0.10;;;15.50;99.90;;;;;;5064062;28;20222;-80
2022/10/29 08:36:33;;;;;;;0.10;0.10;;;15.60;99.90;;;;;;5065161;28;20209;-80
2022/10/29 08:38:59;;;;;;;0.10;0.10;;;15.70;99.90;;;;;;5064998;28;20222;-80
2022/10/29 08:41:45;;;;;;;0.10;0.10;;;15.60;99.90;;;;;;5063036;28;20185;-80
2022/10/29 08:44:34;;;;;;;0.10;0.10;;;15.60;99.90;;;;;;5072396;28;20181;-80
2022/10/29 08:47:08;;;;;;;0.10;0.10;;;15.70;99.90;;;;;;5062829;28;20220;-80
2022/10/29 08:49:52;;;;;;;0.10;0.10;;;15.80;99.90;;;;;;5071510;28;20184;-80
2022/10/29 08:52:24;;;;;;;0.10;0.10;;;16.00;99.90;;;;;;5063280;28;20671;-80
2022/10/29 08:55:03;;;;;;;0.10;0.10;;;16.10;99.90;;;;;;5079252;28;20173;-80
2022/10/29 08:57:33;;;;;;;0.10;0.10;;;16.20;99.90;;;;;;5064179;28;20190;-80
2022/10/29 08:59:58;;;;;;;0.10;0.10;;;16.30;99.90;;;;;;5063218;28;20203;-80
2022/10/29 09:02:24;;;;;;;0.10;0.10;;;16.40;99.90;;;;;;5062607;28;20717;-80
2022/10/29 09:04:50;;;;;;;0.10;0.10;;;16.50;99.90;;;;;;5062179;28;20188;-80
2022/10/29 09:07:18;;;;;;;0.00;0.00;;;16.60;99.90;;;;;;5064238;28;20670;-80
2022/10/29 09:10:03;;;;;;;0.10;0.10;;;16.70;99.90;;;;;;5070939;28;20193;-80
2022/10/29 09:13:03;;;;;;;0.10;0.10;;;16.70;99.90;;;;;;5078079;28;20218;-80
2022/10/29 09:16:07;;;;;;;0.10;0.10;;;16.90;99.90;;;;;;5070272;28;20825;-79
2022/10/29 09:18:59;;;;;;;0.10;0.10;;;17.10;99.90;;;;;;5062315;28;20176;-80
2022/10/29 09:21:25;;;;;;;0.73;0.73;;;17.30;99.90;;;;;;5072630;28;20283;-80
2022/10/29 09:24:03;;;;;;;0.10;0.10;;;17.50;99.90;;;;;;5063163;28;20288;-80
2022/10/29 09:26:54;;;;;;;0.10;0.10;;;17.60;99.90;;;;;;5062706;28;20203;-80
2022/10/29 09:29:35;;;;;;;0.10;0.10;;;17.60;99.90;;;;;;5071065;28;20275;-80
2022/10/29 09:32:02;;;;;;;0.10;0.10;;;17.70;99.90;;;;;;5063478;28;20177;-80
2022/10/29 09:34:54;;;;;;;0.10;0.10;;;17.60;99.90;;;;;;5061572;28;20233;-80
2022/10/29 09:37:32;;;;;;;0.10;0.10;;;17.80;99.90;;;;;;5063049;28;20188;-80
2022/10/29 09:40:00;;;;;;;0.10;0.10;;;17.80;99.90;;;;;;5064573;28;20204;-80
2022/10/29 09:42:37;;;;;;;0.10;0.10;;;17.90;99.90;;;;;;5057565;28;20227;-80
2022/10/29 09:45:08;;;;;;;0.10;0.10;;;17.70;99.90;;;;;;5058765;28;20181;-80
2022/10/29 09:47:51;;;;;;;0.10;0.10;;;17.40;99.90;;;;;;5060400;28;20279;-80
2022/10/29 09:50:54;;;;;;;0.10;0.10;;;17.40;99.90;;;;;;5063933;28;20178;-79
2022/10/29 09:53:20;;;;;;;0.10;0.10;;;17.20;99.90;;;;;;5071231;28;20222;-80
2022/10/29 09:55:53;;;;;;;0.10;0.10;;;17.30;99.90;;;;;;5061923;28;20177;-80
2022/10/29 09:58:22;;;;;;;0.10;0.10;;;17.50;99.90;;;;;;5061697;28;20183;-80
2022/10/29 10:00:49;;;;;;;0.10;0.10;;;17.60;99.90;;;;;;5061956;28;20184;-80
2022/10/29 10:03:22;;;;;;;0.10;0.10;;;17.50;99.90;;;;;;5061304;28;20197;-80
2022/10/29 10:06:03;;;;;;;0.10;0.10;;;17.60;99.90;;;;;;5062102;28;20247;-80
2022/10/29 10:08:29;;;;;;;0.03;0.03;;;17.40;99.90;;;;;;5063795;28;20208;-80
2022/10/29 10:11:00;;;;;;;0.10;0.10;;;17.50;99.90;;;;;;5069684;28;20173;-80
2022/10/29 10:13:29;;;;;;;0.10;0.10;;;17.70;99.90;;;;;;5060926;28;20213;-80
2022/10/29 10:15:59;;;;;;;0.10;0.10;;;18.00;99.90;;;;;;5062240;28;20268;-80
2022/10/29 10:18:37;;;;;;;0.10;0.10;;;17.80;99.90;;;;;;5062607;28;20192;-80
2022/10/29 10:21:07;;;;;;;0.10;0.10;;;17.80;99.90;;;;;;5070104;28;20764;-80
2022/10/29 10:23:46;;;;;;;0.10;0.10;;;17.90;99.90;;;;;;5061205;28;20577;-80
2022/10/29 10:26:43;;;;;;;0.10;0.10;;;18.00;99.90;;;;;;5063867;28;20193;-80
2022/10/29 10:29:22;;;;;;;0.10;0.10;;;17.90;99.90;;;;;;5061967;28;20716;-80
2022/10/29 10:31:55;;;;;;;0.10;0.10;;;18.10;99.90;;;;;;5062529;28;20184;-80
2022/10/29 10:34:35;;;;;;;0.10;0.10;;;18.40;99.90;;;;;;5070006;28;20169;-80
2022/10/29 10:37:02;;;;;;;0.10;0.10;;;18.70;99.90;;;;;;5062396;28;20178;-80
2022/10/29 10:39:37;;;;;;;0.10;0.10;;;18.90;99.90;;;;;;5070017;28;20193;-80
2022/10/29 10:42:05;;;;;;;0.10;0.10;;;18.90;99.90;;;;;;5061989;28;20618;-79
2022/10/29 10:44:32;;;;;;;0.07;0.07;;;19.20;99.90;;;;;;5063019;28;20654;-80
2022/10/29 10:47:05;;;;;;;0.10;0.10;;;19.40;99.90;;;;;;5063651;28;21087;-80
2022/10/29 10:49:36;;;;;;;0.10;0.10;;;19.40;99.90;;;;;;5061085;28;20538;-80
2022/10/29 10:52:27;;;;;;;0.10;0.10;;;19.20;99.90;;;;;;5063587;28;20314;-80
2022/10/29 10:55:04;;;;;;;0.10;0.10;;;19.40;99.90;;;;;;5061124;28;20200;-81
2022/10/29 10:57:39;;;;;;;0.10;0.10;;;19.50;99.90;;;;;;5063452;28;20215;-80
2022/10/29 11:00:06;;;;;;;0.10;0.10;;;19.60;99.90;;;;;;5061633;28;20180;-81
2022/10/29 11:02:58;;;;;;;0.10;0.10;;;19.30;99.90;;;;;;5061721;28;20321;-80
2022/10/29 11:05:34;;;;;;;0.10;0.10;;;18.70;99.90;;;;;;5061546;28;21138;-80
2022/10/29 11:07:59;;;;;;;0.10;0.10;;;18.60;99.90;;;;;;5059883;28;20275;-81
2022/10/29 11:10:40;;;;;;;0.20;0.20;;;18.80;99.90;;;;;;5069601;28;20283;-81
2022/10/29 11:13:14;;;;;;;0.10;0.10;;;18.90;99.90;;;;;;5074275;28;20197;-80
2022/10/29 11:15:49;;;;;;;0.10;0.10;;;19.10;99.90;;;;;;5066504;28;20181;-81
2022/10/29 11:18:33;;;;;;;0.10;0.10;;;19.30;99.90;;;;;;5065382;28;20242;-80
2022/10/29 11:21:14;;;;;;;0.10;0.10;;;19.30;99.90;;;;;;5080785;28;20278;-80
2022/10/29 11:23:47;;;;;;;3.67;3.50;;;19.30;99.90;;;;;;5066407;28;20310;-80
2022/10/29 11:26:30;;;;;;;0.10;0.10;;;19.30;99.90;;;;;;5065242;28;20681;-81
2022/10/29 11:28:59;;;;;;;0.10;0.10;;;19.40;99.90;;;;;;5066605;28;20181;-80
2022/10/29 11:31:35;;;;;;;0.10;0.10;;;19.50;99.90;;;;;;5073591;28;20478;-81
2022/10/29 11:34:36;;;;;;;0.10;0.10;;;19.60;99.90;;;;;;5064508;28;20685;-81
2022/10/29 11:37:12;;;;;;;0.10;0.10;;;19.60;99.90;;;;;;5067299;28;20213;-80
2022/10/29 11:39:53;;;;;;;0.10;0.10;;;19.70;99.90;;;;;;5065660;28;20732;-80
2022/10/29 11:42:19;;;;;;;0.10;0.10;;;19.70;99.90;;;;;;5065965;28;20205;-80
2022/10/29 11:44:45;;;;;;;0.10;0.10;;;19.70;99.90;;;;;;5063849;28;20246;-80
2022/10/29 11:47:48;;;;;;;0.10;0.10;;;19.70;99.90;;;;;;5066247;28;20211;-81
2022/10/29 11:50:28;;;;;;;0.10;0.10;;;19.80;99.90;;;;;;5074026;28;20180;-81
2022/10/29 11:53:19;;;;;;;0.10;0.10;;;19.60;99.90;;;;;;5073504;28;20216;-81
2022/10/29 11:55:52;;;;;;;0.10;0.10;;;19.50;99.90;;;;;;5064869;28;20209;-81
2022/10/29 11:58:35;;;;;;;0.10;0.10;;;19.40;99.90;;;;;;5063462;28;20181;-81
2022/10/29 12:01:28;;;;;;;0.10;0.10;;;19.50;99.90;;;;;;5064332;28;20533;-81
2022/10/29 12:04:17;;;;;;;0.10;0.10;;;19.50;99.90;;;;;;5072709;28;20192;-81
2022/10/29 12:07:02;;;;;;;0.10;0.10;;;19.40;99.90;;;;;;5064887;28;20201;-81
2022/10/29 12:09:56;;;;;;;0.10;0.10;;;19.60;99.90;;;;;;5032054;28;20193;-81
2022/10/29 12:12:30;;;;;;;0.10;0.10;;;19.50;99.90;;;;;;5063147;28;20681;-80
2022/10/29 12:15:26;;;;;;;0.10;0.10;;;19.50;99.90;;;;;;5064803;28;20173;-80
2022/10/29 12:18:16;;;;;;;0.10;0.10;;;19.60;99.90;;;;;;5062819;28;20299;-81
2022/10/29 12:20:47;;;;;;;0.10;0.10;;;19.50;99.90;;;;;;5062013;28;20187;-81
2022/10/29 12:23:33;;;;;;;0.10;0.10;;;19.30;99.90;;;;;;5069784;28;20204;-81
2022/10/29 12:26:01;;;;;;;0.10;0.10;;;19.30;99.90;;;;;;5062871;28;20304;-81
2022/10/29 12:28:57;;;;;;;0.10;0.10;;;19.20;99.90;;;;;;5073755;28;20177;-81
2022/10/29 12:31:26;;;;;;;0.10;0.10;;;19.30;99.90;;;;;;5064858;28;20172;-81
2022/10/29 12:34:10;;;;;;;0.10;0.10;;;19.40;99.90;;;;;;5063771;28;20212;-81
2022/10/29 12:37:09;;;;;;;0.10;0.10;;;19.30;99.90;;;;;;5063104;28;20204;-81
2022/10/29 12:39:41;;;;;;;0.10;0.10;;;19.40;99.90;;;;;;5070919;28;20205;-81
2022/10/29 12:42:22;;;;;;;0.10;0.10;;;19.40;99.90;;;;;;5063078;28;20682;-81
2022/10/29 12:45:05;;;;;;;0.10;0.10;;;19.40;99.90;;;;;;5064045;28;20201;-80
2022/10/29 12:47:54;;;;;;;0.10;0.10;;;19.40;99.90;;;;;;5072864;28;20236;-81
2022/10/29 12:50:38;;;;;;;0.10;0.10;;;19.40;99.90;;;;;;5073437;28;20248;-81
2022/10/29 12:53:23;;;;;;;0.10;0.10;;;19.10;99.90;;;;;;5070654;28;20212;-81
2022/10/29 12:55:50;;;;;;;0.10;0.10;;;18.80;99.90;;;;;;5063546;28;20275;-81
2022/10/29 12:58:47;;;;;;;0.10;0.10;;;18.80;99.90;;;;;;5063220;28;20192;-81
2022/10/29 13:01:33;;;;;;;0.10;0.10;;;18.70;99.90;;;;;;5063389;28;20621;-81
2022/10/29 13:04:03;;;;;;;0.10;0.10;;;18.60;99.90;;;;;;5041676;28;20275;-81
2022/10/29 13:06:40;;;;;;;0.10;0.10;;;18.60;99.90;;;;;;5063575;28;20216;-80
2022/10/29 13:09:22;;;;;;;0.10;0.10;;;18.60;99.90;;;;;;5063260;28;20181;-81